createdAt,value
2019-06-26T00:00:07.695Z,79.01
2019-06-26T00:03:22.909Z,78.94
2019-06-26T00:06:38.256Z,79.14
2019-06-26T00:09:53.346Z,79.20
2019-06-26T00:13:08.532Z,79.37
2019-06-26T00:16:23.105Z,79.58
2019-06-26T00:19:40.060Z,79.77
2019-06-26T00:22:55.018Z,79.85
2019-06-26T00:26:11.101Z,79.95
2019-06-26T00:29:25.770Z,80.00
2019-06-26T00:32:40.692Z,80.05
2019-06-26T00:35:56.347Z,80.10
2019-06-26T00:39:11.708Z,80.08
2019-06-26T00:42:26.720Z,80.36
2019-06-26T00:45:42.538Z,80.59
2019-06-26T00:49:00.265Z,80.82
2019-06-26T00:52:15.243Z,81.08
2019-06-26T00:55:30.652Z,81.12
2019-06-26T00:58:45.923Z,80.94
2019-06-26T01:02:00.790Z,81.00
2019-06-26T01:05:16.745Z,80.89
2019-06-26T01:08:31.972Z,80.97
2019-06-26T01:11:46.842Z,80.79
2019-06-26T01:15:01.587Z,80.54
2019-06-26T01:18:17.205Z,80.69
2019-06-26T01:21:32.199Z,80.50
2019-06-26T01:25:05.381Z,80.44
2019-06-26T01:28:20.571Z,80.75
2019-06-26T01:31:35.684Z,80.52
2019-06-26T01:34:50.730Z,80.30
2019-06-26T01:38:05.828Z,80.52
2019-06-26T01:41:20.784Z,80.69
2019-06-26T01:44:35.604Z,80.72
2019-06-26T01:47:50.839Z,80.69
2019-06-26T01:51:13.522Z,80.68
2019-06-26T01:54:29.770Z,80.73
2019-06-26T01:57:45.294Z,80.65
2019-06-26T02:01:00.149Z,80.66
2019-06-26T02:04:15.780Z,80.72
2019-06-26T02:07:30.790Z,80.58
2019-06-26T02:10:46.453Z,80.60
2019-06-26T02:14:01.469Z,80.51
2019-06-26T02:17:17.659Z,80.65
2019-06-26T02:20:33.086Z,80.75
2019-06-26T02:23:49.134Z,80.60
2019-06-26T02:27:03.962Z,80.63
2019-06-26T02:30:19.192Z,80.65
2019-06-26T02:33:35.204Z,81.09
2019-06-26T02:36:51.307Z,81.34
2019-06-26T02:40:07.085Z,81.35
2019-06-26T02:43:22.254Z,81.63
2019-06-26T02:46:37.695Z,81.81
2019-06-26T02:49:53.473Z,82.04
2019-06-26T02:53:08.409Z,82.06
2019-06-26T02:56:24.557Z,81.99
2019-06-26T02:59:40.839Z,81.75
2019-06-26T03:02:56.934Z,81.92
2019-06-26T03:06:11.816Z,82.13
2019-06-26T03:09:27.106Z,82.33
2019-06-26T03:12:42.050Z,82.37
2019-06-26T03:15:57.575Z,82.44
2019-06-26T03:19:12.904Z,82.05
2019-06-26T03:22:29.159Z,81.73
2019-06-26T03:25:44.487Z,81.69
2019-06-26T03:28:59.561Z,81.91
2019-06-26T03:32:14.631Z,82.05
2019-06-26T03:35:29.735Z,82.21
2019-06-26T03:38:45.913Z,82.26
2019-06-26T03:42:00.604Z,82.29
2019-06-26T03:45:25.717Z,82.03
2019-06-26T03:48:33.741Z,81.93
2019-06-26T03:51:51.200Z,81.67
2019-06-26T03:55:07.054Z,81.95
2019-06-26T03:58:23.122Z,82.05
2019-06-26T04:01:39.119Z,81.91
2019-06-26T04:04:55.002Z,81.87
2019-06-26T04:08:09.949Z,81.95
2019-06-26T04:11:25.620Z,81.94
2019-06-26T04:14:43.105Z,82.02
2019-06-26T04:17:58.588Z,82.13
2019-06-26T04:21:13.312Z,81.91
2019-06-26T04:24:28.254Z,81.74
2019-06-26T04:27:43.497Z,82.29
2019-06-26T04:30:58.651Z,82.22
2019-06-26T04:34:13.803Z,81.92
2019-06-26T04:37:28.625Z,82.11
2019-06-26T04:40:43.616Z,82.17
2019-06-26T04:43:58.870Z,82.19
2019-06-26T04:47:14.511Z,82.25
2019-06-26T04:50:29.233Z,82.59
2019-06-26T04:53:44.219Z,82.73
2019-06-26T04:56:59.553Z,83.07
2019-06-26T05:00:15.397Z,82.99
2019-06-26T05:03:31.344Z,82.71
2019-06-26T05:06:46.531Z,82.42
2019-06-26T05:10:01.386Z,82.37
2019-06-26T05:16:49.062Z,82.60
2019-06-26T05:20:05.522Z,82.71
2019-06-26T05:23:21.642Z,82.52
2019-06-26T05:26:37.709Z,82.47
2019-06-26T05:29:54.588Z,83.08
2019-06-26T05:33:10.557Z,82.81
2019-06-26T05:36:26.956Z,82.96
2019-06-26T05:39:42.438Z,83.21
2019-06-26T05:42:57.941Z,83.82
2019-06-26T05:46:12.663Z,83.83
2019-06-26T05:49:30.615Z,84.25
2019-06-26T05:52:45.464Z,84.43
2019-06-26T05:56:00.395Z,84.37
2019-06-26T05:59:15.323Z,84.31
2019-06-26T06:02:30.435Z,84.62
2019-06-26T06:05:45.922Z,84.14
2019-06-26T06:09:02.355Z,83.88
2019-06-26T06:12:17.985Z,84.17
2019-06-26T06:15:33.447Z,83.67
2019-06-26T06:18:48.772Z,82.66
2019-06-26T06:22:03.633Z,82.63
2019-06-26T06:25:18.983Z,81.98
2019-06-26T06:28:35.766Z,80.93
2019-06-26T06:31:51.337Z,80.73
2019-06-26T06:35:06.691Z,80.60
2019-06-26T06:38:22.599Z,80.38
2019-06-26T06:41:37.808Z,79.95
2019-06-26T06:44:53.188Z,79.57
2019-06-26T06:48:08.143Z,79.75
2019-06-26T06:51:23.168Z,79.69
2019-06-26T06:54:38.083Z,78.90
2019-06-26T06:57:53.049Z,77.86
2019-06-26T07:01:08.350Z,77.18
2019-06-26T07:04:23.772Z,74.41
2019-06-26T07:07:41.274Z,72.33
2019-06-26T07:10:57.106Z,70.40
2019-06-26T07:14:11.619Z,67.59
2019-06-26T07:17:26.460Z,67.00
2019-06-26T07:20:44.461Z,65.54
2019-06-26T07:23:58.230Z,64.05
2019-06-26T07:27:13.290Z,64.25
2019-06-26T07:30:28.773Z,61.99
2019-06-26T07:33:43.898Z,61.99
2019-06-26T07:36:59.194Z,61.97
2019-06-26T07:40:14.491Z,60.81
2019-06-26T07:43:30.442Z,61.14
2019-06-26T07:46:46.871Z,60.62
2019-06-26T07:50:02.134Z,59.63
2019-06-26T07:53:16.844Z,58.38
2019-06-26T07:56:31.912Z,57.97
2019-06-26T07:59:47.909Z,57.45
2019-06-26T08:03:04.531Z,56.45
2019-06-26T08:06:19.803Z,55.51
2019-06-26T08:09:34.849Z,55.31
2019-06-26T08:12:49.723Z,55.48
2019-06-26T08:16:06.280Z,54.73
2019-06-26T08:19:22.430Z,54.41
2019-06-26T08:22:37.314Z,54.58
2019-06-26T08:25:52.229Z,54.62
2019-06-26T08:29:07.612Z,53.75
2019-06-26T08:32:25.846Z,53.92
2019-06-26T08:35:39.651Z,52.74
2019-06-26T08:38:55.978Z,52.87
2019-06-26T08:42:12.318Z,53.31
2019-06-26T08:45:27.041Z,52.87
2019-06-26T08:48:42.174Z,53.15
2019-06-26T08:51:58.142Z,52.03
2019-06-26T08:55:14.051Z,52.32
2019-06-26T08:58:29.908Z,52.11
2019-06-26T09:01:45.206Z,51.65
2019-06-26T09:05:01.479Z,50.18
2019-06-26T09:08:17.139Z,49.62
2019-06-26T09:20:02.660Z,49.23
2019-06-26T09:26:44.342Z,49.66
2019-06-26T09:29:59.989Z,48.29
2019-06-26T09:33:15.862Z,48.13
2019-06-26T09:36:31.025Z,49.05
2019-06-26T09:39:47.070Z,48.15
2019-06-26T09:43:03.273Z,47.81
2019-06-26T09:46:18.757Z,48.28
2019-06-26T09:49:35.013Z,45.64
2019-06-26T09:52:50.693Z,47.47
2019-06-26T09:56:06.738Z,46.13
2019-06-26T09:59:22.611Z,45.91
2019-06-26T10:02:37.827Z,45.55
2019-06-26T10:05:55.568Z,44.56
2019-06-26T10:09:10.662Z,44.10
2019-06-26T10:12:26.178Z,44.15
2019-06-26T10:16:00.776Z,44.51
2019-06-26T10:19:16.437Z,44.60
2019-06-26T10:22:32.289Z,43.92
2019-06-26T10:25:47.711Z,42.67
2019-06-26T10:29:02.788Z,42.35
2019-06-26T10:32:19.130Z,43.02
2019-06-26T10:35:35.608Z,41.91
2019-06-26T10:38:50.627Z,42.62
2019-06-26T10:42:07.441Z,41.69
2019-06-26T10:45:23.132Z,43.34
2019-06-26T10:48:37.918Z,42.77
2019-06-26T10:51:54.163Z,42.39
2019-06-26T10:55:10.034Z,39.80
2019-06-26T10:58:27.435Z,39.06
2019-06-26T11:01:42.736Z,40.25
2019-06-26T11:05:05.456Z,38.88
2019-06-26T11:08:20.665Z,39.40
2019-06-26T11:11:35.752Z,39.25
2019-06-26T11:14:51.022Z,38.83
2019-06-26T11:18:05.676Z,39.96
2019-06-26T11:21:21.479Z,40.49
2019-06-26T11:24:37.412Z,39.14
2019-06-26T11:27:53.618Z,40.03
2019-06-26T11:31:09.690Z,39.05
2019-06-26T11:34:25.650Z,37.51
2019-06-26T11:37:40.487Z,37.82
2019-06-26T11:40:55.724Z,38.68
2019-06-26T11:44:11.496Z,38.50
2019-06-26T11:47:27.796Z,38.13
2019-06-26T11:50:43.137Z,38.21
2019-06-26T11:53:59.126Z,37.13
2019-06-26T11:57:15.542Z,36.92
2019-06-26T12:00:30.958Z,37.12
2019-06-26T12:03:46.452Z,36.27
2019-06-26T12:07:03.051Z,36.17
2019-06-26T12:10:18.860Z,37.83
2019-06-26T12:16:49.870Z,35.73
2019-06-26T12:20:17.807Z,36.45
2019-06-26T12:23:23.411Z,35.68
2019-06-26T12:26:39.233Z,35.53
2019-06-26T12:29:54.693Z,34.25
2019-06-26T12:33:10.319Z,34.88
2019-06-26T12:36:25.549Z,34.04
2019-06-26T12:39:40.965Z,33.83
2019-06-26T12:42:56.042Z,33.69
2019-06-26T12:46:11.181Z,34.50
2019-06-26T12:49:26.380Z,35.05
2019-06-26T12:52:41.474Z,34.05
2019-06-26T12:55:57.340Z,34.15
2019-06-26T12:59:13.808Z,33.94
2019-06-26T13:02:28.880Z,33.72
2019-06-26T13:05:45.304Z,32.12
2019-06-26T13:09:02.793Z,32.61
2019-06-26T13:12:18.547Z,33.31
2019-06-26T13:15:45.716Z,33.01
2019-06-26T13:19:06.520Z,33.22
2019-06-26T13:22:24.111Z,33.08
2019-06-26T13:25:40.088Z,33.37
2019-06-26T13:28:54.948Z,31.61
2019-06-26T13:32:11.276Z,32.98
2019-06-26T13:35:26.593Z,33.38
2019-06-26T13:38:41.843Z,34.12
2019-06-26T13:41:57.542Z,33.22
2019-06-26T13:45:13.239Z,32.79
2019-06-26T13:48:29.505Z,32.26
2019-06-26T13:51:45.553Z,31.89
2019-06-26T13:58:37.378Z,33.50
2019-06-26T14:01:53.470Z,33.32
2019-06-26T14:05:09.219Z,33.61
2019-06-26T14:08:24.250Z,33.03
2019-06-26T14:11:39.615Z,32.30
2019-06-26T14:14:57.693Z,32.79
2019-06-26T14:18:12.778Z,33.38
2019-06-26T14:21:28.132Z,32.76
2019-06-26T14:24:42.999Z,32.07
2019-06-26T14:28:09.941Z,33.51
2019-06-26T14:31:23.344Z,32.62
2019-06-26T14:34:39.248Z,31.78
2019-06-26T14:37:54.133Z,31.33
2019-06-26T14:41:09.962Z,32.44
2019-06-26T14:44:25.023Z,32.38
2019-06-26T14:47:39.933Z,33.70
2019-06-26T14:50:55.586Z,32.78
2019-06-26T14:54:10.602Z,32.57
2019-06-26T14:57:26.145Z,32.81
2019-06-26T15:00:43.848Z,33.24
2019-06-26T15:03:59.771Z,33.84
2019-06-26T15:07:15.256Z,32.63
2019-06-26T15:10:30.639Z,32.62
2019-06-26T15:14:06.887Z,32.53
2019-06-26T15:20:57.728Z,31.65
2019-06-26T15:24:13.039Z,31.35
2019-06-26T15:27:30.886Z,31.49
2019-06-26T15:30:47.020Z,31.16
2019-06-26T15:34:02.265Z,30.02
2019-06-26T15:37:26.214Z,30.62
2019-06-26T15:40:41.104Z,30.32
2019-06-26T15:44:03.774Z,30.24
2019-06-26T15:47:20.431Z,30.92
2019-06-26T15:50:36.159Z,31.04
2019-06-26T15:53:51.142Z,31.38
2019-06-26T15:57:06.907Z,30.80
2019-06-26T16:00:22.746Z,30.77
2019-06-26T16:03:41.245Z,29.91
2019-06-26T16:06:59.616Z,30.88
2019-06-26T16:10:14.858Z,30.94
2019-06-26T16:13:36.734Z,30.90
2019-06-26T16:16:53.326Z,30.76
2019-06-26T16:20:09.854Z,30.80
2019-06-26T16:23:24.894Z,32.23
2019-06-26T16:26:40.445Z,32.03
2019-06-26T16:29:55.683Z,34.33
2019-06-26T16:33:12.028Z,33.72
2019-06-26T16:36:30.710Z,32.38
2019-06-26T16:39:45.562Z,31.96
2019-06-26T16:43:01.023Z,32.43
2019-06-26T16:46:16.569Z,30.33
2019-06-26T16:49:31.820Z,33.59
2019-06-26T16:52:49.604Z,33.71
2019-06-26T16:56:04.826Z,33.76
2019-06-26T16:59:19.691Z,37.01
2019-06-26T17:02:35.189Z,38.66
2019-06-26T17:05:50.788Z,39.87
2019-06-26T17:09:06.229Z,39.95
2019-06-26T17:12:21.821Z,40.36
2019-06-26T17:15:37.836Z,39.79
2019-06-26T17:18:52.792Z,39.36
2019-06-26T17:22:07.861Z,40.07
2019-06-26T17:25:22.609Z,39.78
2019-06-26T17:28:37.452Z,40.13
2019-06-26T17:31:52.369Z,40.68
2019-06-26T17:35:07.650Z,40.90
2019-06-26T17:38:23.404Z,41.42
2019-06-26T17:41:40.014Z,41.95
2019-06-26T17:44:56.031Z,42.25
2019-06-26T17:48:12.700Z,41.96
2019-06-26T17:51:27.975Z,41.96
2019-06-26T17:54:43.955Z,43.12
2019-06-26T17:57:58.955Z,44.53
2019-06-26T18:01:14.570Z,44.06
2019-06-26T18:04:30.728Z,44.39
2019-06-26T18:07:48.665Z,44.56
2019-06-26T18:11:05.241Z,45.66
2019-06-26T18:14:20.192Z,46.91
2019-06-26T18:17:35.223Z,48.42
2019-06-26T18:20:50.349Z,48.78
2019-06-26T18:24:06.037Z,49.73
2019-06-26T18:27:20.890Z,50.00
2019-06-26T18:30:37.055Z,49.45
2019-06-26T18:33:53.655Z,49.25
2019-06-26T18:37:09.073Z,50.67
2019-06-26T18:40:23.789Z,52.44
2019-06-26T18:43:39.325Z,53.57
2019-06-26T18:46:54.065Z,54.42
2019-06-26T18:50:10.719Z,54.66
2019-06-26T18:53:26.877Z,55.54
2019-06-26T18:56:42.198Z,54.56
2019-06-26T18:59:57.265Z,56.30
2019-06-26T19:03:12.544Z,57.24
2019-06-26T19:06:28.009Z,57.35
2019-06-26T19:09:42.672Z,57.92
2019-06-26T19:12:58.310Z,58.51
2019-06-26T19:16:14.471Z,59.18
2019-06-26T19:19:29.719Z,59.76
2019-06-26T19:22:47.594Z,60.15
2019-06-26T19:26:02.974Z,60.53
2019-06-26T19:29:18.219Z,61.19
2019-06-26T19:32:33.027Z,61.67
2019-06-26T19:35:49.813Z,62.19
2019-06-26T19:39:05.329Z,62.58
2019-06-26T19:42:20.484Z,63.06
2019-06-26T19:45:36.497Z,63.33
2019-06-26T19:48:51.510Z,64.11
2019-06-26T19:52:06.877Z,64.52
2019-06-26T19:55:22.533Z,65.00
2019-06-26T19:58:37.446Z,66.22
2019-06-26T20:01:52.507Z,66.82
2019-06-26T20:05:08.588Z,67.18
2019-06-26T20:08:24.000Z,67.55
2019-06-26T20:11:38.881Z,67.87
2019-06-26T20:14:53.526Z,67.62
2019-06-26T20:18:09.882Z,67.61
2019-06-26T20:21:24.665Z,68.21
2019-06-26T20:24:44.397Z,68.63
2019-06-26T20:27:57.459Z,68.53
2019-06-26T20:31:12.336Z,68.80
2019-06-26T20:34:28.331Z,69.39
2019-06-26T20:37:45.103Z,69.26
2019-06-26T20:41:01.674Z,69.61
2019-06-26T20:44:16.704Z,70.23
2019-06-26T20:47:31.480Z,70.23
2019-06-26T20:50:47.674Z,70.23
2019-06-26T20:54:02.510Z,70.42
2019-06-26T20:57:19.684Z,70.07
2019-06-26T21:00:34.413Z,70.07
2019-06-26T21:03:50.511Z,70.81
2019-06-26T21:07:05.978Z,70.94
2019-06-26T21:10:22.036Z,70.88
2019-06-26T21:16:56.328Z,70.45
2019-06-26T21:20:11.469Z,70.90
2019-06-26T21:23:27.094Z,71.04
2019-06-26T21:26:42.039Z,71.27
2019-06-26T21:29:57.131Z,71.45
2019-06-26T21:33:12.822Z,71.19
2019-06-26T21:36:28.855Z,71.40
2019-06-26T21:39:44.079Z,71.77
2019-06-26T21:43:01.522Z,72.37
2019-06-26T21:46:17.489Z,72.52
2019-06-26T21:49:33.290Z,72.13
2019-06-26T21:52:48.906Z,72.20
2019-06-26T21:56:04.185Z,72.24
2019-06-26T21:59:19.103Z,72.49
2019-06-26T22:02:34.778Z,72.59
2019-06-26T22:05:50.061Z,72.41
2019-06-26T22:09:06.781Z,72.82
2019-06-26T22:12:22.184Z,72.53
2019-06-26T22:15:37.916Z,72.73
2019-06-26T22:18:53.601Z,72.62
2019-06-26T22:22:08.635Z,72.85
2019-06-26T22:25:23.619Z,72.90
2019-06-26T22:28:38.450Z,72.83
2019-06-26T22:31:53.489Z,73.01
2019-06-26T22:35:09.221Z,73.15
2019-06-26T22:38:24.368Z,73.25
2019-06-26T22:41:39.426Z,73.30
2019-06-26T22:44:56.365Z,73.43
2019-06-26T22:48:11.488Z,73.64
2019-06-26T22:51:27.532Z,73.80
2019-06-26T22:54:42.924Z,74.79
2019-06-26T22:57:57.938Z,75.48
2019-06-26T23:01:13.146Z,75.33
2019-06-26T23:04:28.791Z,74.70
2019-06-26T23:07:44.845Z,75.07
2019-06-26T23:11:00.021Z,75.08
2019-06-26T23:14:15.489Z,75.05
2019-06-26T23:17:32.188Z,75.11
2019-06-26T23:20:46.894Z,75.09
2019-06-26T23:24:01.995Z,74.73
2019-06-26T23:27:17.387Z,74.84
2019-06-26T23:30:32.018Z,74.74
2019-06-26T23:33:48.542Z,75.02
2019-06-26T23:37:06.700Z,75.02
2019-06-26T23:40:21.674Z,75.20
2019-06-26T23:43:36.731Z,75.39
2019-06-26T23:46:51.526Z,75.78
2019-06-26T23:50:07.191Z,75.74
2019-06-26T23:53:22.470Z,75.43
2019-06-26T23:56:40.610Z,75.77
2019-06-26T23:59:55.433Z,75.90
